createdAt,value
2023-01-19T00:02:22.392Z,-0.70
2023-01-19T00:04:54.462Z,-0.72
2023-01-19T00:07:24.996Z,-0.70
2023-01-19T00:09:55.536Z,-0.76
2023-01-19T00:12:28.535Z,-0.78
2023-01-19T00:14:59.111Z,-0.86
2023-01-19T00:17:32.047Z,-0.93
2023-01-19T00:20:03.775Z,-0.68
2023-01-19T00:22:34.437Z,-0.77
2023-01-19T00:25:05.216Z,-0.78
2023-01-19T00:27:37.745Z,-0.87
2023-01-19T00:30:10.852Z,-0.92
2023-01-19T00:32:42.996Z,-0.98
2023-01-19T00:35:13.671Z,-1.06
2023-01-19T00:37:46.084Z,-0.94
2023-01-19T00:40:17.459Z,-1.06
2023-01-19T00:42:51.878Z,-1.14
2023-01-19T00:45:24.667Z,-0.97
2023-01-19T00:47:56.822Z,-1.00
2023-01-19T00:50:29.766Z,-1.08
2023-01-19T00:53:03.419Z,-0.91
2023-01-19T00:55:34.603Z,-0.86
2023-01-19T00:58:07.636Z,-1.02
2023-01-19T01:00:38.319Z,-1.02
2023-01-19T01:03:08.979Z,-1.09
2023-01-19T01:05:43.681Z,-1.00
2023-01-19T01:08:15.739Z,-1.14
2023-01-19T01:10:50.572Z,-0.90
2023-01-19T01:13:27.477Z,-0.96
2023-01-19T01:15:58.022Z,-0.96
2023-01-19T01:18:29.341Z,-0.98
2023-01-19T01:21:04.378Z,-0.96
2023-01-19T01:23:40.284Z,-1.01
2023-01-19T01:26:13.064Z,-1.18
2023-01-19T01:28:45.430Z,-1.22
2023-01-19T01:31:16.908Z,-1.30
2023-01-19T01:33:51.452Z,-1.46
2023-01-19T01:36:25.127Z,-1.42
2023-01-19T01:38:55.556Z,-1.22
2023-01-19T01:41:28.728Z,-1.08
2023-01-19T01:44:04.142Z,-1.24
2023-01-19T01:46:41.923Z,-1.34
2023-01-19T01:49:13.402Z,-1.46
2023-01-19T01:51:53.681Z,-1.44
2023-01-19T01:54:29.837Z,-1.32
2023-01-19T01:57:04.652Z,-1.34
2023-01-19T01:59:42.574Z,-1.21
2023-01-19T02:02:36.845Z,-1.28
2023-01-19T02:05:12.322Z,-1.20
2023-01-19T02:08:25.103Z,-1.24
2023-01-19T02:11:15.597Z,-1.36
2023-01-19T02:13:47.732Z,-1.33
2023-01-19T02:16:18.985Z,-1.42
2023-01-19T02:18:49.823Z,-1.42
2023-01-19T02:21:50.714Z,-1.47
2023-01-19T02:24:23.549Z,-1.56
2023-01-19T02:26:55.745Z,-1.56
2023-01-19T02:29:28.653Z,-1.48
2023-01-19T02:32:02.091Z,-1.64
2023-01-19T02:34:33.272Z,-1.54
2023-01-19T02:37:15.926Z,-1.52
2023-01-19T02:39:50.759Z,-1.44
2023-01-19T02:42:30.587Z,-1.44
2023-01-19T02:45:03.316Z,-1.54
2023-01-19T02:47:43.030Z,-1.52
2023-01-19T02:50:33.061Z,-1.55
2023-01-19T02:53:16.001Z,-1.60
2023-01-19T02:55:49.864Z,-1.66
2023-01-19T02:58:26.537Z,-1.60
2023-01-19T03:01:19.881Z,-1.71
2023-01-19T03:03:55.759Z,-1.84
2023-01-19T03:06:47.306Z,-1.80
2023-01-19T03:09:45.252Z,-1.73
2023-01-19T03:12:24.819Z,-1.80
2023-01-19T03:14:58.421Z,-1.90
2023-01-19T03:17:33.349Z,-1.78
2023-01-19T03:20:06.256Z,-1.78
2023-01-19T03:22:40.595Z,-1.86
2023-01-19T03:25:13.924Z,-1.92
2023-01-19T03:27:50.202Z,-1.94
2023-01-19T03:30:36.180Z,-2.06
2023-01-19T03:33:27.669Z,-1.78
2023-01-19T03:36:04.157Z,-1.78
2023-01-19T03:38:39.029Z,-1.72
2023-01-19T03:41:15.508Z,-1.80
2023-01-19T03:43:48.852Z,-1.81
2023-01-19T03:46:21.962Z,-1.84
2023-01-19T03:48:55.390Z,-1.79
2023-01-19T03:51:26.916Z,-1.84
2023-01-19T03:53:57.582Z,-1.84
2023-01-19T03:56:28.283Z,-1.84
2023-01-19T03:58:58.894Z,-1.88
2023-01-19T04:01:33.522Z,-1.92
2023-01-19T04:04:05.740Z,-1.72
2023-01-19T04:06:36.915Z,-1.86
2023-01-19T04:09:08.689Z,-1.88
2023-01-19T04:11:41.460Z,-2.00
2023-01-19T04:14:14.218Z,-2.02
2023-01-19T04:16:47.194Z,-2.01
2023-01-19T04:19:18.793Z,-2.04
2023-01-19T04:21:52.720Z,-2.10
2023-01-19T04:24:24.989Z,-2.14
2023-01-19T04:27:00.648Z,-2.20
2023-01-19T04:29:31.315Z,-2.26
2023-01-19T04:32:03.711Z,-2.31
2023-01-19T04:34:34.676Z,-2.22
2023-01-19T04:37:05.631Z,-2.41
2023-01-19T04:39:40.321Z,-2.42
2023-01-19T04:42:11.097Z,-2.36
2023-01-19T04:44:43.300Z,-2.38
2023-01-19T04:47:15.405Z,-2.46
2023-01-19T04:49:47.056Z,-2.44
2023-01-19T04:52:20.955Z,-2.42
2023-01-19T04:54:53.235Z,-2.47
2023-01-19T04:57:25.194Z,-2.52
2023-01-19T04:59:56.276Z,-2.54
2023-01-19T05:02:27.597Z,-2.49
2023-01-19T05:04:59.964Z,-2.63
2023-01-19T05:07:30.973Z,-2.62
2023-01-19T05:10:04.950Z,-2.62
2023-01-19T05:12:36.221Z,-2.74
2023-01-19T05:15:09.686Z,-2.68
2023-01-19T05:17:41.783Z,-2.72
2023-01-19T05:20:16.268Z,-2.74
2023-01-19T05:22:53.604Z,-2.72
2023-01-19T05:25:26.307Z,-2.72
2023-01-19T05:27:56.858Z,-2.66
2023-01-19T05:30:27.677Z,-2.64
2023-01-19T05:32:58.436Z,-2.70
2023-01-19T05:35:35.745Z,-2.60
2023-01-19T05:38:02.480Z,-2.74
2023-01-19T05:40:35.868Z,-2.72
2023-01-19T05:43:06.660Z,-2.68
2023-01-19T05:45:38.950Z,-2.70
2023-01-19T05:48:11.223Z,-2.74
2023-01-19T05:50:44.209Z,-2.79
2023-01-19T05:53:17.114Z,-2.82
2023-01-19T05:55:48.236Z,-2.77
2023-01-19T05:58:21.033Z,-2.82
2023-01-19T06:00:56.325Z,-2.78
2023-01-19T06:03:26.947Z,-2.78
2023-01-19T06:06:05.026Z,-2.80
2023-01-19T06:08:33.309Z,-2.78
2023-01-19T06:11:06.653Z,-2.74
2023-01-19T06:13:42.693Z,-2.76
2023-01-19T06:16:13.233Z,-2.78
2023-01-19T06:18:47.561Z,-2.80
2023-01-19T06:21:18.370Z,-2.80
2023-01-19T06:23:49.587Z,-2.85
2023-01-19T06:26:20.152Z,-2.78
2023-01-19T06:28:53.130Z,-2.88
2023-01-19T06:31:26.696Z,-2.88
2023-01-19T06:33:58.934Z,-2.80
2023-01-19T06:36:30.335Z,-2.60
2023-01-19T06:39:02.654Z,-2.62
2023-01-19T06:41:37.109Z,-2.66
2023-01-19T06:44:09.755Z,-2.74
2023-01-19T06:46:40.454Z,-2.73
2023-01-19T06:49:14.994Z,-2.81
2023-01-19T06:51:49.283Z,-2.80
2023-01-19T06:54:29.475Z,-2.91
2023-01-19T06:56:57.919Z,-3.00
2023-01-19T06:59:34.689Z,-2.80
2023-01-19T07:02:27.310Z,-2.74
2023-01-19T07:04:45.405Z,-2.76
2023-01-19T07:07:19.589Z,-2.76
2023-01-19T07:09:54.831Z,-2.83
2023-01-19T07:12:32.358Z,-2.92
2023-01-19T07:15:03.152Z,-2.68
2023-01-19T07:17:37.443Z,-2.68
2023-01-19T07:20:12.273Z,-2.72
2023-01-19T07:22:48.967Z,-2.61
2023-01-19T07:25:23.028Z,-2.58
2023-01-19T07:27:55.651Z,-2.56
2023-01-19T07:30:26.329Z,-2.66
2023-01-19T07:33:00.163Z,-2.54
2023-01-19T07:35:32.083Z,-2.51
2023-01-19T07:38:05.776Z,-2.22
2023-01-19T07:40:36.552Z,-2.16
2023-01-19T07:43:08.989Z,-2.32
2023-01-19T07:45:39.434Z,-2.31
2023-01-19T07:48:11.574Z,-2.22
2023-01-19T07:50:47.554Z,-2.25
2023-01-19T07:53:19.542Z,-2.28
2023-01-19T07:55:57.003Z,-2.16
2023-01-19T07:58:27.697Z,-2.24
2023-01-19T08:00:58.326Z,-2.20
2023-01-19T08:03:29.361Z,-2.18
2023-01-19T08:06:03.405Z,-2.24
2023-01-19T08:08:40.979Z,-2.16
2023-01-19T08:11:13.573Z,-2.14
2023-01-19T08:13:47.264Z,-2.12
2023-01-19T08:16:22.439Z,-2.04
2023-01-19T08:19:01.058Z,-2.04
2023-01-19T08:21:40.904Z,-1.98
2023-01-19T08:24:19.685Z,-1.88
2023-01-19T08:26:51.390Z,-1.88
2023-01-19T08:29:24.473Z,-1.76
2023-01-19T08:31:58.652Z,-1.68
2023-01-19T08:34:31.714Z,-1.64
2023-01-19T08:37:04.247Z,-1.66
2023-01-19T08:39:36.787Z,-1.65
2023-01-19T08:42:11.500Z,-1.55
2023-01-19T08:44:57.340Z,-1.49
2023-01-19T08:47:17.328Z,-1.42
2023-01-19T08:49:49.052Z,-1.40
2023-01-19T08:52:22.403Z,-1.32
2023-01-19T08:54:55.265Z,-1.40
2023-01-19T08:57:30.056Z,-1.18
2023-01-19T09:00:03.086Z,-1.23
2023-01-19T09:02:33.635Z,-0.99
2023-01-19T09:05:07.410Z,-0.97
2023-01-19T09:07:38.371Z,-1.03
2023-01-19T09:10:10.549Z,-1.03
2023-01-19T09:12:43.688Z,-0.98
2023-01-19T09:15:15.872Z,-0.86
2023-01-19T09:17:46.558Z,-0.70
2023-01-19T09:20:18.706Z,-0.78
2023-01-19T09:22:55.597Z,-0.54
2023-01-19T09:25:24.366Z,-0.62
2023-01-19T09:27:56.861Z,-0.52
2023-01-19T09:30:29.440Z,-0.50
2023-01-19T09:33:11.660Z,-0.60
2023-01-19T09:35:45.400Z,-0.58
2023-01-19T09:38:18.692Z,-0.36
2023-01-19T09:40:55.622Z,-0.36
2023-01-19T09:43:47.791Z,-0.34
2023-01-19T09:46:21.445Z,-0.40
2023-01-19T09:48:53.969Z,-0.30
2023-01-19T09:51:27.756Z,-0.31
2023-01-19T09:54:16.683Z,-0.16
2023-01-19T09:56:52.223Z,-0.05
2023-01-19T09:59:25.289Z,-0.02
2023-01-19T10:02:27.510Z,0.06
2023-01-19T10:05:04.880Z,0.08
2023-01-19T10:07:53.744Z,0.20
2023-01-19T10:10:32.185Z,0.30
2023-01-19T10:13:36.502Z,0.32
2023-01-19T10:16:31.788Z,0.55
2023-01-19T10:19:26.069Z,0.60
2023-01-19T10:21:59.654Z,0.40
2023-01-19T10:24:33.278Z,0.64
2023-01-19T10:27:06.951Z,0.52
2023-01-19T10:29:39.102Z,0.60
2023-01-19T10:32:20.601Z,0.52
2023-01-19T10:34:54.771Z,0.52
2023-01-19T10:37:44.779Z,0.62
2023-01-19T10:40:40.863Z,0.68
2023-01-19T10:43:41.066Z,0.63
2023-01-19T10:46:45.691Z,0.58
2023-01-19T10:49:40.769Z,0.64
2023-01-19T10:52:22.283Z,0.58
2023-01-19T10:54:53.004Z,0.76
2023-01-19T10:57:37.167Z,0.80
2023-01-19T11:00:10.970Z,0.79
2023-01-19T11:02:46.002Z,0.83
2023-01-19T11:05:26.530Z,1.01
2023-01-19T11:07:57.280Z,0.98
2023-01-19T11:10:30.318Z,1.20
2023-01-19T11:13:11.215Z,1.09
2023-01-19T11:15:49.167Z,1.21
2023-01-19T11:18:28.570Z,1.11
2023-01-19T11:21:06.877Z,1.08
2023-01-19T11:23:43.458Z,1.06
2023-01-19T11:26:35.183Z,1.30
2023-01-19T11:29:07.861Z,1.20
2023-01-19T11:31:39.369Z,1.42
2023-01-19T11:34:33.268Z,1.60
2023-01-19T11:37:06.892Z,1.63
2023-01-19T11:39:52.184Z,1.52
2023-01-19T11:42:24.675Z,1.62
2023-01-19T11:45:17.396Z,1.64
2023-01-19T11:47:52.660Z,1.80
2023-01-19T11:53:17.972Z,1.93
2023-01-19T11:56:11.098Z,1.82
2023-01-19T11:58:48.646Z,1.72
2023-01-19T12:01:27.557Z,1.90
2023-01-19T12:04:19.513Z,1.90
2023-01-19T12:06:53.080Z,1.91
2023-01-19T12:09:38.059Z,1.79
2023-01-19T12:12:31.275Z,1.60
2023-01-19T12:15:45.675Z,1.70
2023-01-19T12:18:22.667Z,1.90
2023-01-19T12:20:57.026Z,2.00
2023-01-19T12:23:46.149Z,2.02
2023-01-19T12:26:28.857Z,1.98
2023-01-19T12:29:03.884Z,2.04
2023-01-19T12:31:35.968Z,2.03
2023-01-19T12:34:29.016Z,2.08
2023-01-19T12:37:05.373Z,2.04
2023-01-19T12:39:41.981Z,2.18
2023-01-19T12:42:21.414Z,2.34
2023-01-19T12:44:58.979Z,2.38
2023-01-19T12:47:31.509Z,2.42
2023-01-19T12:50:08.431Z,2.60
2023-01-19T12:52:45.922Z,2.58
2023-01-19T12:55:37.408Z,2.52
2023-01-19T12:58:18.913Z,2.50
2023-01-19T13:01:02.672Z,2.53
2023-01-19T13:03:36.952Z,2.32
2023-01-19T13:06:07.418Z,2.17
2023-01-19T13:08:59.035Z,2.19
2023-01-19T13:11:34.312Z,2.13
2023-01-19T13:14:04.916Z,2.15
2023-01-19T13:16:45.375Z,2.24
2023-01-19T13:19:21.827Z,2.22
2023-01-19T13:21:56.887Z,2.31
2023-01-19T13:24:32.298Z,2.22
2023-01-19T13:27:03.454Z,2.36
2023-01-19T13:29:39.698Z,2.32
2023-01-19T13:32:17.492Z,2.35
2023-01-19T13:34:53.186Z,2.32
2023-01-19T13:37:26.488Z,2.18
2023-01-19T13:39:59.258Z,2.12
2023-01-19T13:42:32.911Z,2.16
2023-01-19T13:45:40.122Z,2.08
2023-01-19T13:48:16.670Z,2.14
2023-01-19T13:51:03.929Z,2.18
2023-01-19T13:53:36.571Z,2.04
2023-01-19T13:56:20.674Z,2.17
2023-01-19T13:59:14.169Z,2.10
2023-01-19T14:01:47.651Z,1.84
2023-01-19T14:04:31.783Z,1.82
2023-01-19T14:07:06.544Z,1.68
2023-01-19T14:09:37.111Z,1.70
2023-01-19T14:12:20.171Z,1.64
2023-01-19T14:14:53.161Z,1.72
2023-01-19T14:17:28.193Z,1.56
2023-01-19T14:20:05.049Z,1.52
2023-01-19T14:22:46.095Z,1.49
2023-01-19T14:25:32.051Z,1.42
2023-01-19T14:28:30.288Z,1.34
2023-01-19T14:31:05.921Z,1.30
2023-01-19T14:33:45.273Z,1.24
2023-01-19T14:36:20.038Z,1.22
2023-01-19T14:38:52.674Z,1.17
2023-01-19T14:41:52.840Z,1.16
2023-01-19T14:44:38.091Z,1.09
2023-01-19T14:47:12.098Z,1.24
2023-01-19T14:49:47.242Z,1.25
2023-01-19T14:52:27.705Z,1.16
2023-01-19T14:55:09.796Z,1.18
2023-01-19T14:57:38.760Z,1.20
2023-01-19T15:00:17.422Z,1.20
2023-01-19T15:02:49.991Z,1.18
2023-01-19T15:05:21.402Z,1.14
2023-01-19T15:07:53.425Z,1.10
2023-01-19T15:10:26.284Z,1.08
2023-01-19T15:12:59.960Z,1.08
2023-01-19T15:15:35.700Z,1.04
2023-01-19T15:18:07.802Z,1.10
2023-01-19T15:20:41.614Z,1.13
2023-01-19T15:23:13.787Z,1.18
2023-01-19T15:25:44.452Z,1.19
2023-01-19T15:28:19.660Z,1.24
2023-01-19T15:31:08.447Z,1.26
2023-01-19T15:33:50.231Z,1.38
2023-01-19T15:36:24.632Z,1.32
2023-01-19T15:39:00.216Z,1.48
2023-01-19T15:41:33.835Z,1.38
2023-01-19T15:44:08.537Z,1.37
2023-01-19T15:46:40.151Z,1.33
2023-01-19T15:49:12.153Z,1.42
2023-01-19T15:51:45.816Z,1.40
2023-01-19T15:54:18.459Z,1.37
2023-01-19T15:56:56.223Z,1.34
2023-01-19T15:59:28.104Z,1.38
2023-01-19T16:02:00.407Z,1.36
2023-01-19T16:04:32.559Z,1.46
2023-01-19T16:07:06.145Z,1.44
2023-01-19T16:09:39.146Z,1.32
2023-01-19T16:12:11.211Z,1.33
2023-01-19T16:14:43.442Z,1.10
2023-01-19T16:17:16.942Z,1.14
2023-01-19T16:19:53.630Z,1.08
2023-01-19T16:22:25.769Z,0.98
2023-01-19T16:24:57.239Z,0.92
2023-01-19T16:27:30.322Z,0.86
2023-01-19T16:30:03.816Z,0.99
2023-01-19T16:32:36.970Z,0.97
2023-01-19T16:35:12.453Z,1.02
2023-01-19T16:37:44.612Z,1.08
2023-01-19T16:40:15.678Z,1.30
2023-01-19T16:42:47.463Z,1.18
2023-01-19T16:45:19.051Z,1.41
2023-01-19T16:47:52.355Z,1.38
2023-01-19T16:50:23.114Z,1.58
2023-01-19T16:53:05.372Z,1.42
2023-01-19T16:55:38.159Z,1.49
2023-01-19T16:58:11.808Z,1.49
2023-01-19T17:00:43.769Z,1.50
2023-01-19T17:03:15.849Z,1.42
2023-01-19T17:05:51.412Z,1.46
2023-01-19T17:08:23.939Z,1.40
2023-01-19T17:10:55.912Z,1.45
2023-01-19T17:13:26.857Z,1.53
2023-01-19T17:16:03.545Z,1.43
2023-01-19T17:18:38.214Z,1.58
2023-01-19T17:21:15.210Z,1.68
2023-01-19T17:23:50.751Z,1.56
2023-01-19T17:26:25.420Z,1.62
2023-01-19T17:29:01.047Z,1.53
2023-01-19T17:31:33.491Z,1.76
2023-01-19T17:34:05.967Z,1.80
2023-01-19T17:36:37.724Z,1.64
2023-01-19T17:39:18.518Z,1.82
2023-01-19T17:41:54.153Z,1.70
2023-01-19T17:44:26.336Z,1.60
2023-01-19T17:49:52.558Z,1.88
2023-01-19T17:52:27.116Z,1.86
2023-01-19T17:55:01.542Z,1.86
2023-01-19T17:57:33.744Z,1.99
2023-01-19T18:00:09.253Z,1.82
2023-01-19T18:02:41.350Z,1.84
2023-01-19T18:05:14.835Z,1.90
2023-01-19T18:07:47.190Z,1.94
2023-01-19T18:10:18.184Z,1.80
2023-01-19T18:13:01.449Z,1.72
2023-01-19T18:15:32.036Z,1.82
2023-01-19T18:18:06.491Z,1.71
2023-01-19T18:20:39.308Z,1.68
2023-01-19T18:23:14.221Z,1.67
2023-01-19T18:25:49.244Z,1.74
2023-01-19T18:28:23.654Z,1.70
2023-01-19T18:30:56.770Z,1.67
2023-01-19T18:33:28.255Z,1.89
2023-01-19T18:36:00.652Z,1.86
2023-01-19T18:38:36.337Z,1.94
2023-01-19T18:41:11.244Z,1.94
2023-01-19T18:43:43.770Z,2.08
2023-01-19T18:46:15.647Z,2.15
2023-01-19T18:48:47.627Z,2.14
2023-01-19T18:51:19.764Z,2.28
2023-01-19T18:53:52.550Z,2.18
2023-01-19T18:56:26.732Z,2.24
2023-01-19T18:58:59.099Z,2.12
2023-01-19T19:01:33.812Z,2.39
2023-01-19T19:04:07.720Z,2.14
2023-01-19T19:06:39.868Z,2.27
2023-01-19T19:09:11.624Z,2.36
2023-01-19T19:11:44.310Z,2.16
2023-01-19T19:14:15.096Z,2.44
2023-01-19T19:16:47.674Z,2.22
2023-01-19T19:19:19.127Z,2.28
2023-01-19T19:21:54.026Z,2.12
2023-01-19T19:24:24.733Z,2.39
2023-01-19T19:26:55.893Z,2.32
2023-01-19T19:29:28.539Z,2.36
2023-01-19T19:32:00.287Z,2.26
2023-01-19T19:34:31.084Z,2.14
2023-01-19T19:37:03.052Z,2.38
2023-01-19T19:39:34.134Z,2.28
2023-01-19T19:42:05.357Z,2.34
2023-01-19T19:44:37.433Z,2.28
2023-01-19T19:47:09.870Z,2.13
2023-01-19T19:49:42.224Z,2.14
2023-01-19T19:52:14.931Z,2.12
2023-01-19T19:54:52.289Z,2.10
2023-01-19T19:57:25.882Z,2.18
2023-01-19T19:59:58.036Z,2.22
2023-01-19T20:02:29.712Z,2.30
2023-01-19T20:05:00.439Z,2.27
2023-01-19T20:07:34.244Z,2.28
2023-01-19T20:10:09.051Z,2.33
2023-01-19T20:12:40.833Z,2.33
2023-01-19T20:15:14.271Z,2.22
2023-01-19T20:17:45.386Z,2.28
2023-01-19T20:20:18.540Z,2.56
2023-01-19T20:22:49.073Z,2.16
2023-01-19T20:25:21.137Z,2.16
2023-01-19T20:27:51.581Z,2.16
2023-01-19T20:30:24.239Z,2.18
2023-01-19T20:32:57.951Z,2.11
2023-01-19T20:35:30.387Z,2.34
2023-01-19T20:38:02.659Z,2.25
2023-01-19T20:40:33.203Z,2.15
2023-01-19T20:43:05.045Z,2.14
2023-01-19T20:45:35.506Z,2.29
2023-01-19T20:48:09.732Z,2.26
2023-01-19T20:50:44.479Z,2.20
2023-01-19T20:53:15.867Z,2.26
2023-01-19T20:55:46.368Z,2.40
2023-01-19T20:58:22.116Z,2.25
2023-01-19T21:00:54.731Z,2.42
2023-01-19T21:03:28.054Z,2.34
2023-01-19T21:06:00.721Z,2.29
2023-01-19T21:08:32.943Z,2.37
2023-01-19T21:11:07.055Z,2.30
2023-01-19T21:13:39.226Z,2.22
2023-01-19T21:16:10.777Z,2.30
2023-01-19T21:18:42.136Z,2.42
2023-01-19T21:21:29.062Z,2.56
2023-01-19T21:23:47.460Z,2.44
2023-01-19T21:26:20.757Z,2.47
2023-01-19T21:28:56.326Z,2.39
2023-01-19T21:31:32.026Z,2.41
2023-01-19T21:34:04.102Z,2.52
2023-01-19T21:36:37.837Z,2.42
2023-01-19T21:39:12.483Z,2.44
2023-01-19T21:41:45.136Z,2.65
2023-01-19T21:44:16.505Z,2.54
2023-01-19T21:46:49.811Z,2.39
2023-01-19T21:49:23.470Z,2.24
2023-01-19T21:51:56.626Z,2.47
2023-01-19T21:54:29.471Z,2.55
2023-01-19T21:57:02.573Z,2.50
2023-01-19T21:59:36.326Z,2.46
2023-01-19T22:02:33.316Z,2.40
2023-01-19T22:04:52.235Z,2.38
2023-01-19T22:07:25.590Z,2.50
2023-01-19T22:09:59.414Z,2.54
2023-01-19T22:12:36.285Z,2.35
2023-01-19T22:15:09.383Z,2.40
2023-01-19T22:17:43.715Z,2.44
2023-01-19T22:20:17.570Z,2.41
2023-01-19T22:22:53.724Z,2.59
2023-01-19T22:25:26.459Z,2.44
2023-01-19T22:27:59.324Z,2.61
2023-01-19T22:30:31.109Z,2.50
2023-01-19T22:33:03.059Z,2.56
2023-01-19T22:35:35.531Z,2.57
2023-01-19T22:38:05.986Z,2.56
2023-01-19T22:40:37.257Z,2.54
2023-01-19T22:43:09.946Z,2.84
2023-01-19T22:45:45.475Z,2.98
2023-01-19T22:48:17.244Z,3.10
2023-01-19T22:50:48.646Z,3.23
2023-01-19T22:53:19.660Z,2.99
2023-01-19T22:55:51.989Z,3.08
2023-01-19T22:58:26.466Z,2.88
2023-01-19T23:01:03.444Z,2.82
2023-01-19T23:03:33.928Z,2.48
2023-01-19T23:06:11.161Z,2.72
2023-01-19T23:08:45.113Z,2.60
2023-01-19T23:11:27.518Z,2.73
2023-01-19T23:14:05.322Z,2.47
2023-01-19T23:16:42.196Z,2.41
2023-01-19T23:19:20.151Z,2.56
2023-01-19T23:21:53.831Z,2.62
2023-01-19T23:24:26.468Z,2.40
2023-01-19T23:27:02.424Z,2.56
2023-01-19T23:29:37.173Z,2.75
2023-01-19T23:32:07.794Z,2.58
2023-01-19T23:34:38.341Z,2.61
2023-01-19T23:37:09.358Z,2.40
2023-01-19T23:39:43.415Z,2.34
2023-01-19T23:42:13.726Z,2.43
2023-01-19T23:44:45.882Z,2.31
2023-01-19T23:47:17.761Z,2.40
2023-01-19T23:49:49.538Z,2.55
2023-01-19T23:52:20.128Z,2.36
2023-01-19T23:54:54.268Z,2.46
2023-01-19T23:57:26.522Z,2.60
2023-01-19T23:59:59.182Z,2.56
